sensor_id;sensor_type;location;lat;lon;timestamp;temperature;humidity
10437;DHT22;5265;50.006;9.202;2023-05-02T00:15:18;10.10;99.90
10437;DHT22;5265;50.006;9.202;2023-05-02T00:22:42;10.10;99.90
10437;DHT22;5265;50.006;9.202;2023-05-02T00:25:09;10.10;99.90
10437;DHT22;5265;50.006;9.202;2023-05-02T00:27:40;10.10;99.90
10437;DHT22;5265;50.006;9.202;2023-05-02T00:32:37;10.10;99.90
10437;DHT22;5265;50.006;9.202;2023-05-02T00:37:33;10.30;99.90
10437;DHT22;5265;50.006;9.202;2023-05-02T00:42:31;10.10;99.90
10437;DHT22;5265;50.006;9.202;2023-05-02T01:25:11;9.80;99.90
10437;DHT22;5265;50.006;9.202;2023-05-02T06:21:36;11.00;99.90
10437;DHT22;5265;50.006;9.202;2023-05-02T07:19:09;13.40;99.90
10437;DHT22;5265;50.006;9.202;2023-05-02T07:24:05;13.80;99.90
10437;DHT22;5265;50.006;9.202;2023-05-02T07:26:33;13.90;99.90
10437;DHT22;5265;50.006;9.202;2023-05-02T07:28:59;13.90;99.90
10437;DHT22;5265;50.006;9.202;2023-05-02T07:31:27;13.90;99.90
10437;DHT22;5265;50.006;9.202;2023-05-02T07:33:56;13.40;99.90
10437;DHT22;5265;50.006;9.202;2023-05-02T08:09:00;13.60;99.90
10437;DHT22;5265;50.006;9.202;2023-05-02T08:11:28;13.60;99.90
10437;DHT22;5265;50.006;9.202;2023-05-02T08:13:55;13.80;99.90
10437;DHT22;5265;50.006;9.202;2023-05-02T08:16:23;13.90;99.90
10437;DHT22;5265;50.006;9.202;2023-05-02T08:18:52;14.20;99.90
10437;DHT22;5265;50.006;9.202;2023-05-02T08:21:19;14.30;99.90
10437;DHT22;5265;50.006;9.202;2023-05-02T08:23:47;14.30;99.90
10437;DHT22;5265;50.006;9.202;2023-05-02T08:26:18;14.40;99.90
10437;DHT22;5265;50.006;9.202;2023-05-02T08:28:47;14.40;99.90
10437;DHT22;5265;50.006;9.202;2023-05-02T08:31:14;14.30;99.90
10437;DHT22;5265;50.006;9.202;2023-05-02T08:33:42;14.20;99.90
10437;DHT22;5265;50.006;9.202;2023-05-02T08:36:09;14.00;99.90
10437;DHT22;5265;50.006;9.202;2023-05-02T08:38:36;13.90;99.90
10437;DHT22;5265;50.006;9.202;2023-05-02T08:41:08;13.80;99.90
10437;DHT22;5265;50.006;9.202;2023-05-02T08:43:38;13.90;99.90
10437;DHT22;5265;50.006;9.202;2023-05-02T08:46:05;14.10;99.90
10437;DHT22;5265;50.006;9.202;2023-05-02T08:48:34;14.30;99.90
10437;DHT22;5265;50.006;9.202;2023-05-02T08:51:02;14.30;99.90
10437;DHT22;5265;50.006;9.202;2023-05-02T08:53:29;14.40;99.90
10437;DHT22;5265;50.006;9.202;2023-05-02T08:55:58;14.30;99.90
10437;DHT22;5265;50.006;9.202;2023-05-02T08:58:25;14.30;99.90
10437;DHT22;5265;50.006;9.202;2023-05-02T09:00:54;14.20;99.90
10437;DHT22;5265;50.006;9.202;2023-05-02T09:03:22;14.20;99.90
10437;DHT22;5265;50.006;9.202;2023-05-02T09:05:52;14.30;99.90
10437;DHT22;5265;50.006;9.202;2023-05-02T09:08:23;14.40;99.90
10437;DHT22;5265;50.006;9.202;2023-05-02T09:10:52;14.50;99.90
10437;DHT22;5265;50.006;9.202;2023-05-02T09:13:29;14.70;99.90
10437;DHT22;5265;50.006;9.202;2023-05-02T09:16:02;14.60;99.90
10437;DHT22;5265;50.006;9.202;2023-05-02T09:18:30;14.60;99.90
10437;DHT22;5265;50.006;9.202;2023-05-02T09:20:58;14.50;99.90
10437;DHT22;5265;50.006;9.202;2023-05-02T09:23:32;14.70;99.90
10437;DHT22;5265;50.006;9.202;2023-05-02T09:25:59;14.50;99.90
10437;DHT22;5265;50.006;9.202;2023-05-02T09:28:36;14.50;99.90
10437;DHT22;5265;50.006;9.202;2023-05-02T09:31:06;14.30;99.90
10437;DHT22;5265;50.006;9.202;2023-05-02T09:33:34;14.40;99.90
10437;DHT22;5265;50.006;9.202;2023-05-02T09:36:01;14.40;99.90
10437;DHT22;5265;50.006;9.202;2023-05-02T09:38:28;14.40;99.90
10437;DHT22;5265;50.006;9.202;2023-05-02T09:40:56;14.50;99.90
10437;DHT22;5265;50.006;9.202;2023-05-02T09:43:23;14.50;99.90
10437;DHT22;5265;50.006;9.202;2023-05-02T09:45:57;14.50;99.90
10437;DHT22;5265;50.006;9.202;2023-05-02T09:48:26;14.60;99.90
10437;DHT22;5265;50.006;9.202;2023-05-02T09:50:54;14.60;99.90
10437;DHT22;5265;50.006;9.202;2023-05-02T09:53:21;14.60;99.90
10437;DHT22;5265;50.006;9.202;2023-05-02T09:55:49;14.80;99.90
10437;DHT22;5265;50.006;9.202;2023-05-02T09:58:24;15.00;99.90
10437;DHT22;5265;50.006;9.202;2023-05-02T10:00:52;15.00;99.90
10437;DHT22;5265;50.006;9.202;2023-05-02T10:03:19;15.00;99.90
10437;DHT22;5265;50.006;9.202;2023-05-02T10:05:51;15.20;99.90
10437;DHT22;5265;50.006;9.202;2023-05-02T10:08:20;15.40;99.90
10437;DHT22;5265;50.006;9.202;2023-05-02T10:10:49;15.70;99.90
10437;DHT22;5265;50.006;9.202;2023-05-02T10:13:18;15.70;99.90
10437;DHT22;5265;50.006;9.202;2023-05-02T10:15:46;15.30;99.90
10437;DHT22;5265;50.006;9.202;2023-05-02T10:18:16;15.10;99.90
10437;DHT22;5265;50.006;9.202;2023-05-02T10:20:47;14.90;99.90
10437;DHT22;5265;50.006;9.202;2023-05-02T10:23:18;14.90;99.90
10437;DHT22;5265;50.006;9.202;2023-05-02T10:25:45;14.70;99.90
10437;DHT22;5265;50.006;9.202;2023-05-02T10:28:12;14.60;99.90
10437;DHT22;5265;50.006;9.202;2023-05-02T10:30:40;14.70;99.90
10437;DHT22;5265;50.006;9.202;2023-05-02T10:33:07;14.90;99.90
10437;DHT22;5265;50.006;9.202;2023-05-02T10:35:35;14.80;99.90
10437;DHT22;5265;50.006;9.202;2023-05-02T10:38:02;15.00;99.90
10437;DHT22;5265;50.006;9.202;2023-05-02T10:40:31;15.20;99.90
10437;DHT22;5265;50.006;9.202;2023-05-02T10:42:58;15.50;99.90
10437;DHT22;5265;50.006;9.202;2023-05-02T10:45:29;15.60;99.90
10437;DHT22;5265;50.006;9.202;2023-05-02T10:48:13;15.60;99.90
10437;DHT22;5265;50.006;9.202;2023-05-02T10:50:43;15.80;99.90
10437;DHT22;5265;50.006;9.202;2023-05-02T10:53:28;15.70;99.90
10437;DHT22;5265;50.006;9.202;2023-05-02T10:58:39;15.40;99.90
10437;DHT22;5265;50.006;9.202;2023-05-02T11:03:52;15.60;99.90
10437;DHT22;5265;50.006;9.202;2023-05-02T11:06:20;15.90;99.90
10437;DHT22;5265;50.006;9.202;2023-05-02T11:08:47;16.30;99.90
10437;DHT22;5265;50.006;9.202;2023-05-02T11:14:00;16.30;99.90
10437;DHT22;5265;50.006;9.202;2023-05-02T11:16:34;16.00;99.90
10437;DHT22;5265;50.006;9.202;2023-05-02T11:19:20;16.00;99.90
10437;DHT22;5265;50.006;9.202;2023-05-02T11:21:47;16.10;99.90
10437;DHT22;5265;50.006;9.202;2023-05-02T11:29:56;16.40;99.90
10437;DHT22;5265;50.006;9.202;2023-05-02T11:32:24;16.60;99.90
10437;DHT22;5265;50.006;9.202;2023-05-02T11:34:51;16.70;99.90
10437;DHT22;5265;50.006;9.202;2023-05-02T11:37:20;16.90;99.90
10437;DHT22;5265;50.006;9.202;2023-05-02T11:39:47;16.90;99.90
10437;DHT22;5265;50.006;9.202;2023-05-02T11:42:28;17.00;99.90
10437;DHT22;5265;50.006;9.202;2023-05-02T11:44:57;17.10;99.90
10437;DHT22;5265;50.006;9.202;2023-05-02T11:47:25;16.90;99.90
10437;DHT22;5265;50.006;9.202;2023-05-02T11:49:54;16.70;99.90
10437;DHT22;5265;50.006;9.202;2023-05-02T11:52:22;16.80;99.90
10437;DHT22;5265;50.006;9.202;2023-05-02T11:54:52;17.00;99.90
10437;DHT22;5265;50.006;9.202;2023-05-02T11:57:20;17.10;99.90
10437;DHT22;5265;50.006;9.202;2023-05-02T11:59:48;17.20;99.90
10437;DHT22;5265;50.006;9.202;2023-05-02T12:02:18;17.10;99.90
10437;DHT22;5265;50.006;9.202;2023-05-02T12:04:45;16.90;99.90
10437;DHT22;5265;50.006;9.202;2023-05-02T12:07:13;16.90;99.90
10437;DHT22;5265;50.006;9.202;2023-05-02T12:09:49;17.20;99.90
10437;DHT22;5265;50.006;9.202;2023-05-02T12:12:18;17.50;99.90
10437;DHT22;5265;50.006;9.202;2023-05-02T12:14:45;17.50;99.90
10437;DHT22;5265;50.006;9.202;2023-05-02T12:17:12;17.60;99.90
10437;DHT22;5265;50.006;9.202;2023-05-02T12:19:41;17.50;99.90
10437;DHT22;5265;50.006;9.202;2023-05-02T12:22:08;17.60;99.90
10437;DHT22;5265;50.006;9.202;2023-05-02T12:24:36;17.40;99.90
10437;DHT22;5265;50.006;9.202;2023-05-02T12:27:09;17.60;99.90
10437;DHT22;5265;50.006;9.202;2023-05-02T12:29:37;17.90;99.90
10437;DHT22;5265;50.006;9.202;2023-05-02T12:32:04;18.10;99.90
10437;DHT22;5265;50.006;9.202;2023-05-02T12:34:31;17.80;99.90
10437;DHT22;5265;50.006;9.202;2023-05-02T12:37:00;17.60;99.90
10437;DHT22;5265;50.006;9.202;2023-05-02T12:39:33;17.40;99.90
10437;DHT22;5265;50.006;9.202;2023-05-02T12:42:07;17.70;99.90
10437;DHT22;5265;50.006;9.202;2023-05-02T12:44:35;17.90;99.90
10437;DHT22;5265;50.006;9.202;2023-05-02T12:47:03;18.10;99.90
10437;DHT22;5265;50.006;9.202;2023-05-02T12:49:30;18.30;99.90
10437;DHT22;5265;50.006;9.202;2023-05-02T12:51:58;18.60;99.90
10437;DHT22;5265;50.006;9.202;2023-05-02T12:54:26;18.70;99.90
10437;DHT22;5265;50.006;9.202;2023-05-02T12:56:54;18.60;99.90
10437;DHT22;5265;50.006;9.202;2023-05-02T12:59:25;18.80;99.90
10437;DHT22;5265;50.006;9.202;2023-05-02T13:01:52;18.90;99.90
10437;DHT22;5265;50.006;9.202;2023-05-02T13:04:19;18.80;99.90
10437;DHT22;5265;50.006;9.202;2023-05-02T13:06:46;18.20;99.90
10437;DHT22;5265;50.006;9.202;2023-05-02T13:09:12;18.10;99.90
10437;DHT22;5265;50.006;9.202;2023-05-02T13:11:41;18.10;99.90
10437;DHT22;5265;50.006;9.202;2023-05-02T13:14:08;17.60;99.90
10437;DHT22;5265;50.006;9.202;2023-05-02T13:16:36;17.20;99.90
10437;DHT22;5265;50.006;9.202;2023-05-02T13:19:03;17.10;99.90
10437;DHT22;5265;50.006;9.202;2023-05-02T13:21:31;17.10;99.90
10437;DHT22;5265;50.006;9.202;2023-05-02T13:23:57;17.10;99.90
10437;DHT22;5265;50.006;9.202;2023-05-02T13:26:25;17.10;99.90
10437;DHT22;5265;50.006;9.202;2023-05-02T13:28:53;16.80;99.90
10437;DHT22;5265;50.006;9.202;2023-05-02T13:31:20;16.70;99.90
10437;DHT22;5265;50.006;9.202;2023-05-02T13:33:47;16.70;99.90
10437;DHT22;5265;50.006;9.202;2023-05-02T13:36:15;16.90;99.90
10437;DHT22;5265;50.006;9.202;2023-05-02T13:38:42;17.70;99.90
10437;DHT22;5265;50.006;9.202;2023-05-02T13:41:09;18.20;99.90
10437;DHT22;5265;50.006;9.202;2023-05-02T13:43:36;18.40;99.90
10437;DHT22;5265;50.006;9.202;2023-05-02T13:46:06;19.10;99.90
10437;DHT22;5265;50.006;9.202;2023-05-02T13:48:33;19.40;99.60
10437;DHT22;5265;50.006;9.202;2023-05-02T13:51:02;19.50;98.80
10437;DHT22;5265;50.006;9.202;2023-05-02T13:53:29;19.10;98.70
10437;DHT22;5265;50.006;9.202;2023-05-02T13:55:56;19.40;99.40
10437;DHT22;5265;50.006;9.202;2023-05-02T13:58:24;19.40;98.70
10437;DHT22;5265;50.006;9.202;2023-05-02T14:00:51;19.20;99.20
10437;DHT22;5265;50.006;9.202;2023-05-02T14:03:19;19.00;99.50
10437;DHT22;5265;50.006;9.202;2023-05-02T14:05:47;19.20;99.90
10437;DHT22;5265;50.006;9.202;2023-05-02T14:08:13;19.00;98.90
10437;DHT22;5265;50.006;9.202;2023-05-02T14:10:43;18.60;99.30
10437;DHT22;5265;50.006;9.202;2023-05-02T14:13:09;18.70;99.30
10437;DHT22;5265;50.006;9.202;2023-05-02T14:15:37;19.00;99.40
10437;DHT22;5265;50.006;9.202;2023-05-02T14:18:04;19.10;98.40
10437;DHT22;5265;50.006;9.202;2023-05-02T14:20:32;19.00;98.50
10437;DHT22;5265;50.006;9.202;2023-05-02T14:22:59;18.80;98.80
10437;DHT22;5265;50.006;9.202;2023-05-02T14:25:27;18.90;99.30
10437;DHT22;5265;50.006;9.202;2023-05-02T14:27:54;19.30;99.80
10437;DHT22;5265;50.006;9.202;2023-05-02T14:30:21;19.50;99.90
10437;DHT22;5265;50.006;9.202;2023-05-02T14:32:49;19.40;99.90
10437;DHT22;5265;50.006;9.202;2023-05-02T14:35:16;18.90;99.90
10437;DHT22;5265;50.006;9.202;2023-05-02T14:37:45;19.40;99.50
10437;DHT22;5265;50.006;9.202;2023-05-02T14:40:12;19.60;99.10
10437;DHT22;5265;50.006;9.202;2023-05-02T14:42:39;19.80;98.60
10437;DHT22;5265;50.006;9.202;2023-05-02T14:45:07;19.10;98.30
10437;DHT22;5265;50.006;9.202;2023-05-02T14:47:35;18.50;99.30
10437;DHT22;5265;50.006;9.202;2023-05-02T14:50:02;18.60;99.90
10437;DHT22;5265;50.006;9.202;2023-05-02T14:52:30;18.90;99.90
10437;DHT22;5265;50.006;9.202;2023-05-02T14:54:59;19.30;99.90
10437;DHT22;5265;50.006;9.202;2023-05-02T14:57:26;19.10;99.90
10437;DHT22;5265;50.006;9.202;2023-05-02T14:59:54;19.20;99.90
10437;DHT22;5265;50.006;9.202;2023-05-02T15:02:21;19.20;99.90
10437;DHT22;5265;50.006;9.202;2023-05-02T15:04:48;19.00;99.90
10437;DHT22;5265;50.006;9.202;2023-05-02T15:07:15;19.10;99.90
10437;DHT22;5265;50.006;9.202;2023-05-02T15:09:42;18.80;99.90
10437;DHT22;5265;50.006;9.202;2023-05-02T15:12:10;18.90;99.90
10437;DHT22;5265;50.006;9.202;2023-05-02T15:14:37;18.50;99.90
10437;DHT22;5265;50.006;9.202;2023-05-02T15:17:04;18.70;99.90
10437;DHT22;5265;50.006;9.202;2023-05-02T15:19:32;18.10;99.90
10437;DHT22;5265;50.006;9.202;2023-05-02T15:21:59;17.70;99.90
10437;DHT22;5265;50.006;9.202;2023-05-02T15:24:26;17.30;99.90
10437;DHT22;5265;50.006;9.202;2023-05-02T15:26:53;17.30;99.90
10437;DHT22;5265;50.006;9.202;2023-05-02T15:29:22;17.40;99.90
10437;DHT22;5265;50.006;9.202;2023-05-02T15:31:49;17.10;99.90
10437;DHT22;5265;50.006;9.202;2023-05-02T15:34:16;16.90;99.90
10437;DHT22;5265;50.006;9.202;2023-05-02T15:36:43;16.70;99.90
10437;DHT22;5265;50.006;9.202;2023-05-02T15:39:10;16.80;99.90
10437;DHT22;5265;50.006;9.202;2023-05-02T15:41:38;16.60;99.90
10437;DHT22;5265;50.006;9.202;2023-05-02T15:44:05;16.60;99.90
10437;DHT22;5265;50.006;9.202;2023-05-02T15:46:34;16.80;99.90
10437;DHT22;5265;50.006;9.202;2023-05-02T15:49:01;17.20;99.90
10437;DHT22;5265;50.006;9.202;2023-05-02T15:51:28;17.50;99.90
10437;DHT22;5265;50.006;9.202;2023-05-02T15:53:55;17.80;99.90
10437;DHT22;5265;50.006;9.202;2023-05-02T15:56:22;17.70;99.90
10437;DHT22;5265;50.006;9.202;2023-05-02T15:58:50;17.30;99.90
10437;DHT22;5265;50.006;9.202;2023-05-02T16:01:17;16.90;99.90
10437;DHT22;5265;50.006;9.202;2023-05-02T16:03:47;16.70;99.90
10437;DHT22;5265;50.006;9.202;2023-05-02T16:06:14;16.60;99.90
10437;DHT22;5265;50.006;9.202;2023-05-02T16:08:42;16.60;99.90
10437;DHT22;5265;50.006;9.202;2023-05-02T16:11:09;16.40;99.90
10437;DHT22;5265;50.006;9.202;2023-05-02T16:13:36;16.50;99.90
10437;DHT22;5265;50.006;9.202;2023-05-02T16:16:03;16.40;99.90
10437;DHT22;5265;50.006;9.202;2023-05-02T16:18:32;16.80;99.90
10437;DHT22;5265;50.006;9.202;2023-05-02T16:21:00;17.60;99.90
10437;DHT22;5265;50.006;9.202;2023-05-02T16:23:27;18.50;99.90
10437;DHT22;5265;50.006;9.202;2023-05-02T16:25:58;18.70;99.90
10437;DHT22;5265;50.006;9.202;2023-05-02T16:28:25;18.90;99.90
10437;DHT22;5265;50.006;9.202;2023-05-02T16:30:53;18.10;99.90
10437;DHT22;5265;50.006;9.202;2023-05-02T16:33:20;17.10;99.90
10437;DHT22;5265;50.006;9.202;2023-05-02T16:35:47;16.40;99.90
10437;DHT22;5265;50.006;9.202;2023-05-02T16:38:16;16.40;99.90
10437;DHT22;5265;50.006;9.202;2023-05-02T16:40:43;16.80;99.90
10437;DHT22;5265;50.006;9.202;2023-05-02T16:43:10;17.30;99.90
10437;DHT22;5265;50.006;9.202;2023-05-02T16:45:37;18.00;99.90
10437;DHT22;5265;50.006;9.202;2023-05-02T16:48:04;18.20;99.90
10437;DHT22;5265;50.006;9.202;2023-05-02T16:50:32;18.40;99.90
10437;DHT22;5265;50.006;9.202;2023-05-02T16:52:59;18.80;99.90
10437;DHT22;5265;50.006;9.202;2023-05-02T16:55:28;17.80;99.90
10437;DHT22;5265;50.006;9.202;2023-05-02T16:57:55;17.50;99.90
10437;DHT22;5265;50.006;9.202;2023-05-02T17:00:22;17.40;99.90
10437;DHT22;5265;50.006;9.202;2023-05-02T17:02:50;18.10;99.90
10437;DHT22;5265;50.006;9.202;2023-05-02T17:05:21;18.70;99.90
10437;DHT22;5265;50.006;9.202;2023-05-02T17:07:48;18.80;99.90
10437;DHT22;5265;50.006;9.202;2023-05-02T17:10:16;18.50;99.90
10437;DHT22;5265;50.006;9.202;2023-05-02T17:12:45;18.80;99.90
10437;DHT22;5265;50.006;9.202;2023-05-02T17:15:12;18.90;99.90
10437;DHT22;5265;50.006;9.202;2023-05-02T17:17:39;18.60;99.90
10437;DHT22;5265;50.006;9.202;2023-05-02T17:20:07;18.30;99.90
10437;DHT22;5265;50.006;9.202;2023-05-02T17:22:34;18.20;99.90
10437;DHT22;5265;50.006;9.202;2023-05-02T17:25:03;18.60;99.90
10437;DHT22;5265;50.006;9.202;2023-05-02T17:27:31;18.60;99.90
10437;DHT22;5265;50.006;9.202;2023-05-02T17:30:00;18.30;99.90
10437;DHT22;5265;50.006;9.202;2023-05-02T17:32:29;18.20;99.90
10437;DHT22;5265;50.006;9.202;2023-05-02T17:34:56;18.30;99.90
10437;DHT22;5265;50.006;9.202;2023-05-02T17:37:23;18.40;99.90
10437;DHT22;5265;50.006;9.202;2023-05-02T17:39:50;18.90;99.90
10437;DHT22;5265;50.006;9.202;2023-05-02T17:42:18;19.20;99.90
10437;DHT22;5265;50.006;9.202;2023-05-02T17:44:45;19.20;99.90
10437;DHT22;5265;50.006;9.202;2023-05-02T17:47:14;19.20;99.90
10437;DHT22;5265;50.006;9.202;2023-05-02T17:49:43;18.90;99.90
10437;DHT22;5265;50.006;9.202;2023-05-02T17:52:10;18.80;99.90
10437;DHT22;5265;50.006;9.202;2023-05-02T17:54:37;19.00;99.90
10437;DHT22;5265;50.006;9.202;2023-05-02T17:57:05;19.30;99.90
10437;DHT22;5265;50.006;9.202;2023-05-02T17:59:31;19.10;99.90
10437;DHT22;5265;50.006;9.202;2023-05-02T18:01:58;19.10;99.90
10437;DHT22;5265;50.006;9.202;2023-05-02T18:04:27;18.70;99.90
10437;DHT22;5265;50.006;9.202;2023-05-02T18:06:55;18.00;99.90
10437;DHT22;5265;50.006;9.202;2023-05-02T18:09:22;17.40;99.90
10437;DHT22;5265;50.006;9.202;2023-05-02T18:11:49;16.70;99.90
10437;DHT22;5265;50.006;9.202;2023-05-02T18:14:16;15.90;99.90
10437;DHT22;5265;50.006;9.202;2023-05-02T18:16:44;15.50;99.90
10437;DHT22;5265;50.006;9.202;2023-05-02T18:19:13;15.20;99.90
10437;DHT22;5265;50.006;9.202;2023-05-02T18:21:42;14.80;99.90
10437;DHT22;5265;50.006;9.202;2023-05-02T18:24:09;14.70;99.90
10437;DHT22;5265;50.006;9.202;2023-05-02T18:26:36;14.70;99.90
10437;DHT22;5265;50.006;9.202;2023-05-02T18:29:04;14.60;99.90
10437;DHT22;5265;50.006;9.202;2023-05-02T18:31:31;14.40;99.90
10437;DHT22;5265;50.006;9.202;2023-05-02T18:33:59;14.30;99.90
10437;DHT22;5265;50.006;9.202;2023-05-02T18:36:27;14.20;99.90
10437;DHT22;5265;50.006;9.202;2023-05-02T18:38:56;14.30;99.90
10437;DHT22;5265;50.006;9.202;2023-05-02T18:41:25;14.20;99.90
10437;DHT22;5265;50.006;9.202;2023-05-02T18:43:52;13.90;99.90
10437;DHT22;5265;50.006;9.202;2023-05-02T18:46:19;13.90;99.90
10437;DHT22;5265;50.006;9.202;2023-05-02T18:48:46;13.90;99.90
10437;DHT22;5265;50.006;9.202;2023-05-02T18:51:13;13.90;99.90
10437;DHT22;5265;50.006;9.202;2023-05-02T18:53:40;13.90;99.90
10437;DHT22;5265;50.006;9.202;2023-05-02T18:56:12;13.90;99.90
10437;DHT22;5265;50.006;9.202;2023-05-02T18:58:40;13.90;99.90
10437;DHT22;5265;50.006;9.202;2023-05-02T19:01:10;13.70;99.90
10437;DHT22;5265;50.006;9.202;2023-05-02T19:03:37;13.60;99.90
10437;DHT22;5265;50.006;9.202;2023-05-02T19:06:05;13.50;99.90
10437;DHT22;5265;50.006;9.202;2023-05-02T19:08:32;13.40;99.90
10437;DHT22;5265;50.006;9.202;2023-05-02T19:10:59;13.40;99.90
10437;DHT22;5265;50.006;9.202;2023-05-02T19:13:27;13.30;99.90
10437;DHT22;5265;50.006;9.202;2023-05-02T19:15:55;13.30;99.90
10437;DHT22;5265;50.006;9.202;2023-05-02T19:18:22;13.30;99.90
10437;DHT22;5265;50.006;9.202;2023-05-02T19:20:49;13.20;99.90
10437;DHT22;5265;50.006;9.202;2023-05-02T19:23:17;13.00;99.90
10437;DHT22;5265;50.006;9.202;2023-05-02T19:25:45;12.70;99.90
10437;DHT22;5265;50.006;9.202;2023-05-02T19:28:12;12.40;99.90
10437;DHT22;5265;50.006;9.202;2023-05-02T19:30:42;12.20;99.90
10437;DHT22;5265;50.006;9.202;2023-05-02T19:33:09;12.10;99.90
10437;DHT22;5265;50.006;9.202;2023-05-02T19:35:37;12.00;99.90
10437;DHT22;5265;50.006;9.202;2023-05-02T19:38:04;11.90;99.90
10437;DHT22;5265;50.006;9.202;2023-05-02T19:40:32;11.80;99.90
10437;DHT22;5265;50.006;9.202;2023-05-02T19:42:59;11.80;99.90
10437;DHT22;5265;50.006;9.202;2023-05-02T19:45:26;11.80;99.90
10437;DHT22;5265;50.006;9.202;2023-05-02T19:47:54;11.70;99.90
10437;DHT22;5265;50.006;9.202;2023-05-02T19:50:23;11.70;99.90
10437;DHT22;5265;50.006;9.202;2023-05-02T19:52:51;11.70;99.90
10437;DHT22;5265;50.006;9.202;2023-05-02T19:55:18;11.60;99.90
10437;DHT22;5265;50.006;9.202;2023-05-02T19:57:45;11.40;99.90
10437;DHT22;5265;50.006;9.202;2023-05-02T20:00:14;11.40;99.90
10437;DHT22;5265;50.006;9.202;2023-05-02T20:02:42;11.40;99.90
10437;DHT22;5265;50.006;9.202;2023-05-02T20:05:12;11.30;99.90
10437;DHT22;5265;50.006;9.202;2023-05-02T20:07:41;11.20;99.90
10437;DHT22;5265;50.006;9.202;2023-05-02T20:10:10;11.20;99.90
10437;DHT22;5265;50.006;9.202;2023-05-02T20:12:38;11.00;99.90
10437;DHT22;5265;50.006;9.202;2023-05-02T20:15:09;10.90;99.90
10437;DHT22;5265;50.006;9.202;2023-05-02T20:17:37;10.80;99.90
10437;DHT22;5265;50.006;9.202;2023-05-02T20:20:05;10.60;99.90
10437;DHT22;5265;50.006;9.202;2023-05-02T20:22:34;10.50;99.90
10437;DHT22;5265;50.006;9.202;2023-05-02T20:25:03;10.20;99.90
10437;DHT22;5265;50.006;9.202;2023-05-02T20:27:30;10.10;99.90
10437;DHT22;5265;50.006;9.202;2023-05-02T20:29:57;10.00;99.90
10437;DHT22;5265;50.006;9.202;2023-05-02T20:32:24;10.00;99.90
10437;DHT22;5265;50.006;9.202;2023-05-02T20:34:52;9.90;99.90
10437;DHT22;5265;50.006;9.202;2023-05-02T20:37:19;9.70;99.90
10437;DHT22;5265;50.006;9.202;2023-05-02T20:39:47;9.30;99.90
10437;DHT22;5265;50.006;9.202;2023-05-02T20:42:14;9.40;99.90
10437;DHT22;5265;50.006;9.202;2023-05-02T20:44:51;9.20;99.90
10437;DHT22;5265;50.006;9.202;2023-05-02T20:47:19;9.20;99.90
10437;DHT22;5265;50.006;9.202;2023-05-02T20:49:46;9.10;99.90
10437;DHT22;5265;50.006;9.202;2023-05-02T20:52:13;9.00;99.90
10437;DHT22;5265;50.006;9.202;2023-05-02T20:54:41;8.90;99.90
10437;DHT22;5265;50.006;9.202;2023-05-02T20:57:10;8.90;99.90
10437;DHT22;5265;50.006;9.202;2023-05-02T20:59:36;8.90;99.90
10437;DHT22;5265;50.006;9.202;2023-05-02T21:02:04;8.80;99.90
10437;DHT22;5265;50.006;9.202;2023-05-02T21:04:31;8.70;99.90
10437;DHT22;5265;50.006;9.202;2023-05-02T21:06:58;8.70;99.90
10437;DHT22;5265;50.006;9.202;2023-05-02T21:09:25;8.50;99.90
10437;DHT22;5265;50.006;9.202;2023-05-02T21:11:52;8.50;99.90
10437;DHT22;5265;50.006;9.202;2023-05-02T21:14:22;8.40;99.90
10437;DHT22;5265;50.006;9.202;2023-05-02T21:16:50;8.30;99.90
10437;DHT22;5265;50.006;9.202;2023-05-02T21:19:17;8.20;99.90
10437;DHT22;5265;50.006;9.202;2023-05-02T21:21:44;8.20;99.90
10437;DHT22;5265;50.006;9.202;2023-05-02T21:24:11;8.20;99.90
10437;DHT22;5265;50.006;9.202;2023-05-02T21:26:38;8.10;99.90
10437;DHT22;5265;50.006;9.202;2023-05-02T21:29:06;7.90;99.90
10437;DHT22;5265;50.006;9.202;2023-05-02T21:31:36;7.80;99.90
10437;DHT22;5265;50.006;9.202;2023-05-02T21:34:04;7.80;99.90
10437;DHT22;5265;50.006;9.202;2023-05-02T21:36:31;7.80;99.90
10437;DHT22;5265;50.006;9.202;2023-05-02T21:38:58;7.80;99.90
10437;DHT22;5265;50.006;9.202;2023-05-02T21:41:25;7.70;99.90
10437;DHT22;5265;50.006;9.202;2023-05-02T21:43:52;7.80;99.90
10437;DHT22;5265;50.006;9.202;2023-05-02T21:46:19;7.80;99.90
10437;DHT22;5265;50.006;9.202;2023-05-02T21:48:48;7.80;99.90
10437;DHT22;5265;50.006;9.202;2023-05-02T21:51:15;7.80;99.90
10437;DHT22;5265;50.006;9.202;2023-05-02T21:53:42;7.80;99.90
10437;DHT22;5265;50.006;9.202;2023-05-02T21:56:09;7.70;99.90
10437;DHT22;5265;50.006;9.202;2023-05-02T21:58:36;7.60;99.90
10437;DHT22;5265;50.006;9.202;2023-05-02T22:01:03;7.70;99.90
10437;DHT22;5265;50.006;9.202;2023-05-02T22:03:30;7.70;99.90
10437;DHT22;5265;50.006;9.202;2023-05-02T22:06:00;7.60;99.90
10437;DHT22;5265;50.006;9.202;2023-05-02T22:08:30;7.60;99.90
10437;DHT22;5265;50.006;9.202;2023-05-02T22:10:58;7.40;99.90
10437;DHT22;5265;50.006;9.202;2023-05-02T22:13:25;7.50;99.90
10437;DHT22;5265;50.006;9.202;2023-05-02T22:15:52;7.50;99.90
10437;DHT22;5265;50.006;9.202;2023-05-02T22:18:18;7.60;99.90
10437;DHT22;5265;50.006;9.202;2023-05-02T22:20:46;7.50;99.90
10437;DHT22;5265;50.006;9.202;2023-05-02T22:23:15;7.50;99.90
10437;DHT22;5265;50.006;9.202;2023-05-02T22:25:42;7.50;99.90
10437;DHT22;5265;50.006;9.202;2023-05-02T22:28:11;7.70;99.90
10437;DHT22;5265;50.006;9.202;2023-05-02T22:30:38;7.70;99.90
10437;DHT22;5265;50.006;9.202;2023-05-02T22:33:06;7.80;99.90
10437;DHT22;5265;50.006;9.202;2023-05-02T22:35:34;7.70;99.90
10437;DHT22;5265;50.006;9.202;2023-05-02T22:38:01;7.70;99.90
10437;DHT22;5265;50.006;9.202;2023-05-02T22:40:30;7.50;99.90
10437;DHT22;5265;50.006;9.202;2023-05-02T22:42:57;7.50;99.90
10437;DHT22;5265;50.006;9.202;2023-05-02T22:45:24;7.60;99.90
10437;DHT22;5265;50.006;9.202;2023-05-02T22:47:52;7.50;99.90
10437;DHT22;5265;50.006;9.202;2023-05-02T22:50:19;7.40;99.90
10437;DHT22;5265;50.006;9.202;2023-05-02T22:52:46;7.40;99.90
10437;DHT22;5265;50.006;9.202;2023-05-02T22:55:14;7.50;99.90
10437;DHT22;5265;50.006;9.202;2023-05-02T22:57:42;7.40;99.90
10437;DHT22;5265;50.006;9.202;2023-05-02T23:00:09;7.40;99.90
10437;DHT22;5265;50.006;9.202;2023-05-02T23:02:37;7.10;99.90
10437;DHT22;5265;50.006;9.202;2023-05-02T23:05:04;7.20;99.90
10437;DHT22;5265;50.006;9.202;2023-05-02T23:07:31;7.10;99.90
10437;DHT22;5265;50.006;9.202;2023-05-02T23:09:58;7.00;99.90
10437;DHT22;5265;50.006;9.202;2023-05-02T23:12:26;6.80;99.90
10437;DHT22;5265;50.006;9.202;2023-05-02T23:14:54;6.80;99.90
10437;DHT22;5265;50.006;9.202;2023-05-02T23:17:21;6.80;99.90
10437;DHT22;5265;50.006;9.202;2023-05-02T23:19:48;6.80;99.90
10437;DHT22;5265;50.006;9.202;2023-05-02T23:22:15;7.60;99.90
10437;DHT22;5265;50.006;9.202;2023-05-02T23:24:44;6.80;99.90
10437;DHT22;5265;50.006;9.202;2023-05-02T23:27:11;6.90;99.90
10437;DHT22;5265;50.006;9.202;2023-05-02T23:29:38;6.70;99.90
10437;DHT22;5265;50.006;9.202;2023-05-02T23:32:06;6.70;99.90
10437;DHT22;5265;50.006;9.202;2023-05-02T23:34:33;6.90;99.90
10437;DHT22;5265;50.006;9.202;2023-05-02T23:37:01;6.90;99.90
10437;DHT22;5265;50.006;9.202;2023-05-02T23:39:30;6.60;99.90